Time;durP1;ratioP1;P1;durP2;ratioP2;P2;SDS_P1;SDS_P2;PMS_P1;PMS_P2;Temp;Humidity;BMP_temperature;BMP_pressure;BME280_temperature;BME280_humidity;BME280_pressure;Samples;Min_cycle;Max_cycle;Signal;HPM_P1;HPM_P2
2024/02/13 00:02:45;;;;;;;5.57;2.03;;;;;;;12.80;56.65;101178.22;10410621;28;20021;-60
2024/02/13 00:07:46;;;;;;;2.63;1.55;;;;;;;12.80;56.74;101169.41;10411613;28;20052;-60
2024/02/13 00:12:46;;;;;;;4.18;1.70;;;;;;;12.79;56.49;101175.78;10411070;28;20083;-60
2024/02/13 00:17:47;;;;;;;3.73;2.10;;;;;;;12.78;56.63;101182.13;10409757;28;20021;-60
2024/02/13 00:22:48;;;;;;;3.50;1.90;;;;;;;12.76;57.08;101182.38;10410421;28;20264;-60
2024/02/13 00:27:48;;;;;;;2.95;1.40;;;;;;;12.76;57.07;101184.25;10410367;28;20041;-60
2024/02/13 00:32:49;;;;;;;4.80;2.27;;;;;;;12.76;57.05;101192.22;10412281;28;20022;-60
2024/02/13 00:37:49;;;;;;;4.72;1.90;;;;;;;12.75;56.92;101196.75;10368237;28;20725;-61
2024/02/13 00:42:52;;;;;;;1.80;1.30;;;;;;;12.74;56.23;101197.00;10369083;28;20022;-61
2024/02/13 00:47:52;;;;;;;2.75;1.65;;;;;;;12.73;57.55;101200.69;10366893;28;20269;-60
2024/02/13 00:52:53;;;;;;;2.47;1.30;;;;;;;12.73;56.60;101203.38;10369029;28;20069;-61
2024/02/13 00:57:54;;;;;;;2.85;1.58;;;;;;;12.71;57.04;101198.28;10367007;28;20276;-61
2024/02/13 01:02:55;;;;;;;2.90;1.35;;;;;;;12.70;56.42;101209.97;10367298;28;20056;-61
2024/02/13 01:07:55;;;;;;;3.25;2.03;;;;;;;12.70;56.85;101207.31;10373009;28;20052;-60
2024/02/13 01:12:57;;;;;;;2.25;1.38;;;;;;;12.69;56.30;101215.56;10408704;28;20022;-61
2024/02/13 01:17:59;;;;;;;3.38;2.22;;;;;;;12.69;56.95;101227.00;10408274;28;20280;-60
2024/02/13 01:22:59;;;;;;;4.70;2.15;;;;;;;12.68;57.05;101225.38;10407111;28;20258;-59
2024/02/13 01:27:59;;;;;;;3.63;1.48;;;;;;;12.66;56.57;101226.66;10408069;28;20447;-60
2024/02/13 01:33:00;;;;;;;5.07;2.10;;;;;;;12.65;56.32;101225.84;10394780;28;20025;-60
2024/02/13 01:38:00;;;;;;;3.13;2.22;;;;;;;12.65;56.45;101223.19;10394718;28;20045;-61
2024/02/13 01:43:02;;;;;;;4.10;2.17;;;;;;;12.64;57.40;101224.25;10407520;28;20051;-60
2024/02/13 01:48:04;;;;;;;4.35;2.03;;;;;;;12.65;56.32;101231.16;10407687;28;20333;-61
2024/02/13 01:53:04;;;;;;;3.38;2.03;;;;;;;12.63;56.51;101229.81;10406229;28;20607;-61
2024/02/13 01:58:05;;;;;;;2.28;1.58;;;;;;;12.63;56.84;101232.47;10405553;28;20191;-60
2024/02/13 02:03:07;;;;;;;3.53;2.20;;;;;;;12.62;56.90;101238.84;10393670;28;20105;-60
2024/02/13 02:08:08;;;;;;;4.82;2.35;;;;;;;12.61;57.09;101240.69;10392109;28;20104;-60
2024/02/13 02:13:08;;;;;;;3.45;2.42;;;;;;;12.60;56.30;101244.41;10371050;28;20053;-60
2024/02/13 02:18:10;;;;;;;3.35;1.85;;;;;;;12.60;56.44;101244.41;10365368;28;20109;-60
2024/02/13 02:23:10;;;;;;;4.20;2.63;;;;;;;12.59;57.20;101248.13;10365745;28;20080;-60
2024/02/13 02:28:10;;;;;;;3.15;2.20;;;;;;;12.56;56.41;101252.06;10364192;28;20551;-60
2024/02/13 02:33:12;;;;;;;4.53;2.15;;;;;;;12.56;56.38;101251.28;10391378;28;20489;-60
2024/02/13 02:38:13;;;;;;;4.38;2.58;;;;;;;12.56;56.79;101253.94;10380542;28;20026;-61
2024/02/13 02:43:14;;;;;;;3.67;2.25;;;;;;;12.54;56.94;101253.34;10405710;28;20052;-61
2024/02/13 02:48:16;;;;;;;4.65;2.47;;;;;;;12.53;56.62;101255.19;10405616;28;20451;-61
2024/02/13 02:53:16;;;;;;;4.20;2.38;;;;;;;12.53;57.17;101251.72;10385553;28;20022;-61
2024/02/13 02:58:16;;;;;;;3.33;2.33;;;;;;;12.50;57.06;101261.00;10363136;28;20022;-61
2024/02/13 03:03:20;;;;;;;5.10;2.47;;;;;;;12.51;57.14;101262.63;10364607;28;20284;-61
2024/02/13 03:08:21;;;;;;;4.90;3.03;;;;;;;12.49;56.67;101254.06;10373785;28;20367;-60
2024/02/13 03:13:21;;;;;;;5.70;2.92;;;;;;;12.49;56.66;101253.28;10384096;28;20036;-61
2024/02/13 03:18:24;;;;;;;3.78;2.88;;;;;;;12.49;56.38;101250.63;10399154;28;20628;-60
2024/02/13 03:23:24;;;;;;;3.22;2.33;;;;;;;12.47;56.51;101250.84;10400000;28;20163;-60
2024/02/13 03:28:25;;;;;;;3.63;2.50;;;;;;;12.50;56.05;101257.53;10412672;28;20140;-60
2024/02/13 03:33:25;;;;;;;3.75;3.22;;;;;;;12.48;56.03;101260.44;10384202;28;20343;-61
2024/02/13 03:38:26;;;;;;;5.03;2.50;;;;;;;12.47;57.16;101266.81;10371565;28;20032;-61
2024/02/13 03:43:27;;;;;;;4.25;2.42;;;;;;;12.45;56.99;101260.94;10370435;28;20028;-60
2024/02/13 03:48:28;;;;;;;4.60;3.33;;;;;;;12.44;56.60;101261.97;10371612;28;20017;-60
2024/02/13 03:53:29;;;;;;;4.20;2.75;;;;;;;12.42;57.19;101258.72;10389812;28;20044;-61
2024/02/13 03:58:29;;;;;;;4.18;2.90;;;;;;;12.43;56.26;101267.50;10410481;28;20033;-60
2024/02/13 04:03:29;;;;;;;4.53;2.80;;;;;;;12.42;56.84;101266.72;10412178;28;20132;-60
2024/02/13 04:08:30;;;;;;;3.40;2.60;;;;;;;12.43;56.15;101270.19;10399043;28;20052;-61
2024/02/13 04:13:30;;;;;;;3.95;2.70;;;;;;;12.42;57.49;101274.69;10368755;28;20280;-60
2024/02/13 04:18:31;;;;;;;4.47;2.60;;;;;;;12.41;56.65;101286.38;10370045;28;20288;-61
2024/02/13 04:23:32;;;;;;;3.70;2.13;;;;;;;12.40;56.30;101294.59;10368050;28;20101;-60
2024/02/13 04:28:32;;;;;;;4.07;2.42;;;;;;;12.40;56.71;101294.59;10369503;28;20277;-60
2024/02/13 04:33:33;;;;;;;3.35;2.25;;;;;;;12.39;56.46;101293.78;10370289;28;20496;-60
2024/02/13 04:38:33;;;;;;;4.07;2.43;;;;;;;12.38;57.49;101288.72;10368999;28;20022;-60
2024/02/13 04:43:33;;;;;;;3.25;2.10;;;;;;;12.37;57.30;101292.44;10367931;28;20284;-60
2024/02/13 04:48:34;;;;;;;3.42;2.20;;;;;;;12.39;56.32;101296.44;10367340;28;20109;-61
2024/02/13 04:53:34;;;;;;;3.23;2.07;;;;;;;12.40;56.69;101289.28;10367233;28;20026;-60
2024/02/13 04:58:36;;;;;;;3.47;2.22;;;;;;;12.39;57.05;101293.00;10368389;28;20356;-61
2024/02/13 05:07:19;;;;;;;3.13;2.22;;;;;;;12.36;57.37;101294.28;10367287;28;20448;-61
2024/02/13 05:09:00;;;;;;;3.15;2.05;;;;;;;12.37;57.16;101289.75;10382658;28;20062;-60
2024/02/13 05:14:02;;;;;;;2.97;2.05;;;;;;;12.35;56.73;101295.31;10408727;28;20029;-60
2024/02/13 05:19:03;;;;;;;5.15;2.30;;;;;;;12.34;56.85;101300.88;10403170;28;20772;-61
2024/02/13 05:24:03;;;;;;;3.78;2.08;;;;;;;12.34;56.99;101291.06;10367592;28;20021;-61
2024/02/13 05:29:04;;;;;;;4.03;2.45;;;;;;;12.33;57.29;101294.75;10366956;28;20397;-60
2024/02/13 05:34:06;;;;;;;3.88;1.95;;;;;;;12.32;56.79;101298.47;10392064;28;20428;-61
2024/02/13 05:39:08;;;;;;;2.90;2.20;;;;;;;12.30;57.39;101296.03;10366729;28;20026;-60
2024/02/13 05:44:08;;;;;;;3.35;2.05;;;;;;;12.30;57.73;101295.22;10367184;28;20025;-60
2024/02/13 05:49:08;;;;;;;3.47;2.10;;;;;;;12.30;56.76;101300.53;10366500;28;20038;-60
2024/02/13 05:54:09;;;;;;;4.03;2.67;;;;;;;12.29;56.89;101307.72;10366377;28;20675;-60
2024/02/13 05:59:10;;;;;;;2.85;1.92;;;;;;;12.28;56.64;101289.34;10366482;28;20428;-61
2024/02/13 06:04:11;;;;;;;4.18;1.85;;;;;;;12.28;56.86;101292.81;10365396;28;20026;-59
2024/02/13 06:09:13;;;;;;;3.38;2.20;;;;;;;12.28;57.35;101302.63;10379229;28;20152;-60
2024/02/13 06:14:13;;;;;;;3.75;2.15;;;;;;;12.27;57.28;101293.06;10366533;28;20111;-61
2024/02/13 06:19:14;;;;;;;3.88;1.77;;;;;;;12.27;56.66;101301.81;10365764;28;20054;-61
2024/02/13 06:24:15;;;;;;;3.38;1.75;;;;;;;12.27;57.19;101303.69;10365850;28;20372;-61
2024/02/13 06:29:15;;;;;;;2.90;2.20;;;;;;;12.25;57.09;101306.59;10365416;28;20531;-61
2024/02/13 06:34:19;;;;;;;3.17;2.03;;;;;;;12.24;56.79;101312.94;10366467;28;20735;-61
2024/02/13 06:39:22;;;;;;;3.45;1.75;;;;;;;12.23;57.02;101327.28;10363684;28;20037;-60
2024/02/13 06:44:23;;;;;;;3.03;1.80;;;;;;;12.23;57.01;101321.16;10364043;28;20049;-61
2024/02/13 06:49:24;;;;;;;3.58;2.40;;;;;;;12.23;57.03;101315.84;10364302;28;20030;-61
2024/02/13 06:54:24;;;;;;;2.38;1.35;;;;;;;12.23;57.45;101321.16;10366886;28;20038;-61
2024/02/13 06:59:27;;;;;;;3.17;1.73;;;;;;;12.22;56.74;101332.84;10366432;28;20072;-61
2024/02/13 07:04:27;;;;;;;2.80;1.83;;;;;;;12.20;56.65;101345.56;10365867;28;20057;-61
2024/02/13 07:09:27;;;;;;;3.47;1.70;;;;;;;12.21;57.38;101349.84;10379673;28;20515;-61
2024/02/13 07:14:29;;;;;;;3.60;1.70;;;;;;;12.20;57.95;101359.66;10366476;28;20293;-61
2024/02/13 07:19:30;;;;;;;2.25;1.58;;;;;;;12.19;57.52;101357.22;10374705;28;20107;-60
2024/02/13 07:24:30;;;;;;;3.55;1.83;;;;;;;12.18;57.11;101352.94;10407072;28;20014;-61
2024/02/13 07:29:31;;;;;;;3.25;2.17;;;;;;;12.18;57.22;101352.94;10405523;28;20033;-61
2024/02/13 07:34:37;;;;;;;2.53;1.95;;;;;;;12.17;57.33;101362.78;10393972;28;20038;-60
2024/02/13 07:39:37;;;;;;;2.22;1.60;;;;;;;12.19;57.38;101362.53;10365940;28;20481;-60
2024/02/13 07:44:37;;;;;;;2.03;1.33;;;;;;;12.18;57.79;101363.59;10364755;28;20030;-60
2024/02/13 07:49:38;;;;;;;2.30;1.42;;;;;;;12.17;57.60;101373.41;10366231;28;20072;-61
2024/02/13 07:54:39;;;;;;;1.92;1.25;;;;;;;12.17;57.13;101380.59;10364646;28;20109;-61
2024/02/13 07:59:41;;;;;;;2.97;1.50;;;;;;;12.16;57.40;101369.16;10371032;28;20034;-61
2024/02/13 08:04:43;;;;;;;2.83;1.63;;;;;;;12.15;57.38;101388.00;10372933;28;20025;-60
2024/02/13 08:09:43;;;;;;;2.65;1.23;;;;;;;12.14;57.38;101379.22;10392253;28;20132;-61
2024/02/13 08:14:44;;;;;;;2.75;1.60;;;;;;;12.13;57.64;101382.09;10378663;28;20559;-61
2024/02/13 08:19:44;;;;;;;2.33;1.40;;;;;;;12.13;58.03;101400.72;10372906;28;20269;-60
2024/02/13 08:24:44;;;;;;;2.67;1.37;;;;;;;12.11;57.44;101405.47;10373073;28;20280;-60
2024/02/13 08:29:45;;;;;;;1.60;1.10;;;;;;;12.10;57.75;101415.28;10370392;28;20276;-61
2024/02/13 08:34:45;;;;;;;2.73;1.40;;;;;;;12.10;58.40;101411.81;10396891;28;20296;-61
2024/02/13 08:39:45;;;;;;;3.05;1.50;;;;;;;12.09;57.75;101416.34;10370046;28;20284;-62
2024/02/13 08:44:46;;;;;;;2.50;0.90;;;;;;;12.09;58.89;101416.34;10371585;28;20026;-61
2024/02/13 08:49:46;;;;;;;1.73;1.10;;;;;;;12.10;58.54;101417.16;10369914;28;20033;-61
2024/02/13 08:54:46;;;;;;;1.20;0.85;;;;;;;12.09;58.24;101423.50;10370740;28;20339;-61
2024/02/13 08:59:47;;;;;;;3.57;1.30;;;;;;;12.09;58.47;101424.31;10370858;28;20524;-61
2024/02/13 09:04:50;;;;;;;2.13;0.90;;;;;;;12.11;57.85;101426.72;10370590;28;20273;-61
2024/02/13 09:09:50;;;;;;;1.63;0.98;;;;;;;12.13;58.62;101428.09;10391557;28;20295;-61
2024/02/13 09:14:50;;;;;;;2.20;1.48;;;;;;;12.15;58.50;101426.00;10410563;28;20033;-61
2024/02/13 09:19:51;;;;;;;2.60;1.33;;;;;;;12.16;57.93;101448.09;10411116;28;20861;-61
2024/02/13 09:24:51;;;;;;;1.45;0.93;;;;;;;12.19;58.18;101444.97;10385816;28;20125;-61
2024/02/13 09:29:53;;;;;;;3.55;1.75;;;;;;;12.22;57.79;101442.66;10369550;28;20036;-61
2024/02/13 09:34:53;;;;;;;1.75;1.02;;;;;;;12.25;58.45;101438.72;10396589;28;20072;-60
2024/02/13 09:39:55;;;;;;;2.20;1.17;;;;;;;12.26;58.55;101443.78;10410168;28;20025;-61
2024/02/13 09:44:55;;;;;;;1.48;0.80;;;;;;;12.28;58.10;101440.91;10392243;28;20279;-61
2024/02/13 09:49:56;;;;;;;2.65;1.15;;;;;;;12.26;58.19;101448.31;10408910;28;20439;-60
2024/02/13 09:54:57;;;;;;;1.75;0.90;;;;;;;12.25;58.31;101450.16;10409590;28;20041;-61
2024/02/13 10:00:01;;;;;;;1.55;0.90;;;;;;;12.23;57.89;101457.56;10407977;28;20029;-61
2024/02/13 10:05:01;;;;;;;2.45;1.17;;;;;;;12.22;58.76;101453.28;10407732;28;20033;-61
2024/02/13 10:10:02;;;;;;;2.40;1.00;;;;;;;12.24;58.09;101453.06;10398719;28;20369;-61
2024/02/13 10:15:03;;;;;;;2.05;0.80;;;;;;;12.25;58.75;101458.13;10367306;28;20676;-60
2024/02/13 10:20:06;;;;;;;2.05;0.80;;;;;;;12.29;59.18;101459.28;10380724;28;20107;-61
2024/02/13 10:25:08;;;;;;;2.25;0.98;;;;;;;12.32;59.01;101473.16;10408327;28;20380;-60
2024/02/13 10:30:08;;;;;;;1.58;1.05;;;;;;;12.34;58.59;101471.06;10410210;28;20095;-61
2024/02/13 10:35:11;;;;;;;1.80;1.15;;;;;;;12.36;58.27;101466.31;10389328;28;20022;-61
2024/02/13 10:40:20;;;;;;;1.15;0.80;;;;;;;12.38;58.43;101459.72;10367617;28;20080;-61
2024/02/13 10:45:28;;;;;;;1.50;0.70;;;;;;;12.41;58.91;101461.91;10365932;28;20030;-60
2024/02/13 10:50:30;;;;;;;0.95;0.57;;;;;;;12.44;58.45;101465.97;10367174;28;20396;-60
2024/02/13 10:55:33;;;;;;;2.97;0.98;;;;;;;12.45;58.86;101465.72;10361480;28;20030;-60
2024/02/13 11:00:34;;;;;;;1.75;0.80;;;;;;;12.50;58.76;101470.31;10364204;28;20021;-61
2024/02/13 11:05:35;;;;;;;2.35;1.10;;;;;;;12.49;58.76;101468.72;10366380;28;20523;-61
2024/02/13 11:10:36;;;;;;;2.30;0.82;;;;;;;12.53;58.70;101475.16;10391637;28;20073;-61
2024/02/13 11:15:40;;;;;;;1.77;0.97;;;;;;;12.59;59.14;101466.25;10366551;28;20241;-60
2024/02/13 11:20:46;;;;;;;2.38;1.05;;;;;;;12.61;59.21;101480.13;10366388;28;20280;-61
2024/02/13 11:25:59;;;;;;;1.92;1.02;;;;;;;12.62;58.63;101475.59;10366701;28;20025;-60
2024/02/13 11:30:59;;;;;;;2.05;1.08;;;;;;;12.69;58.47;101473.63;10366061;28;20029;-61
2024/02/13 11:35:59;;;;;;;1.87;0.80;;;;;;;12.69;58.29;101470.97;10372521;28;20022;-60
2024/02/13 11:41:02;;;;;;;1.03;0.70;;;;;;;12.70;58.16;101468.06;10373968;28;20279;-61
2024/02/13 11:46:07;;;;;;;2.03;0.98;;;;;;;12.69;58.66;101477.09;10372521;28;20342;-61
2024/02/13 11:51:07;;;;;;;2.35;1.25;;;;;;;12.68;58.73;101483.47;10373410;28;20034;-61
2024/02/13 11:56:08;;;;;;;1.15;0.70;;;;;;;12.65;58.23;101473.28;10371909;28;20389;-61
2024/02/13 12:01:10;;;;;;;4.80;1.33;;;;;;;12.66;58.43;101482.88;10372243;28;20041;-61
2024/02/13 12:06:11;;;;;;;2.35;0.80;;;;;;;12.65;57.86;101462.63;10372674;28;20747;-61
2024/02/13 12:11:13;;;;;;;3.03;1.05;;;;;;;12.62;58.81;101454.31;10384773;28;20142;-61
2024/02/13 12:16:14;;;;;;;1.30;1.02;;;;;;;12.63;58.46;101470.03;10363801;28;20025;-61
2024/02/13 12:21:15;;;;;;;1.02;0.70;;;;;;;12.59;58.16;101461.75;10371006;28;20029;-60
2024/02/13 12:26:18;;;;;;;3.50;1.20;;;;;;;12.59;58.91;101460.94;10370712;28;20049;-61
2024/02/13 12:31:21;;;;;;;3.75;1.02;;;;;;;12.56;58.49;101459.56;10370553;28;20148;-61
2024/02/13 12:36:24;;;;;;;1.25;0.73;;;;;;;12.57;58.61;101457.72;10369519;28;20033;-61
2024/02/13 12:41:24;;;;;;;1.55;0.98;;;;;;;12.56;59.01;101453.44;10369863;28;20469;-61
2024/02/13 12:46:27;;;;;;;2.00;0.80;;;;;;;12.59;58.74;101455.63;10370114;28;20026;-61
2024/02/13 12:51:31;;;;;;;1.88;0.75;;;;;;;12.58;58.41;101460.13;10371230;28;20304;-61
2024/02/13 12:56:31;;;;;;;1.70;0.95;;;;;;;12.56;58.74;101454.25;10369744;28;20112;-60
2024/02/13 13:01:37;;;;;;;1.35;1.05;;;;;;;12.56;58.91;101450.78;10369699;28;20030;-61
2024/02/13 13:06:39;;;;;;;3.08;0.90;;;;;;;12.53;59.10;101448.56;10370112;28;20041;-60
2024/02/13 13:11:40;;;;;;;1.35;0.88;;;;;;;12.51;58.50;101453.31;10383612;28;20448;-61
2024/02/13 13:16:40;;;;;;;2.80;1.38;;;;;;;12.47;59.16;101455.66;10368815;28;20082;-61
2024/02/13 13:21:42;;;;;;;1.33;0.60;;;;;;;12.46;58.83;101464.69;10369198;28;20476;-61
2024/02/13 13:26:42;;;;;;;1.90;0.82;;;;;;;12.44;58.62;101456.13;10368731;28;20280;-61
2024/02/13 13:31:44;;;;;;;1.47;0.70;;;;;;;12.42;59.08;101442.25;10409015;28;20067;-60
2024/02/13 13:36:44;;;;;;;2.78;0.70;;;;;;;12.39;58.71;101442.72;10369193;28;20620;-61
2024/02/13 13:41:45;;;;;;;1.45;0.75;;;;;;;12.39;59.27;101436.59;10368066;28;20028;-61
2024/02/13 13:46:45;;;;;;;1.98;1.52;;;;;;;12.38;59.18;101440.28;10368750;28;20037;-61
2024/02/13 13:51:46;;;;;;;1.90;1.02;;;;;;;12.35;59.45;101433.59;10369323;28;20116;-61
2024/02/13 13:56:47;;;;;;;1.67;0.65;;;;;;;12.35;59.05;101425.63;10368070;28;20029;-61
2024/02/13 14:01:49;;;;;;;1.08;0.70;;;;;;;12.35;59.25;101427.47;10368859;28;20033;-61
2024/02/13 14:06:51;;;;;;;1.95;0.73;;;;;;;12.35;59.73;101427.47;10366963;28;20037;-61
2024/02/13 14:11:52;;;;;;;1.40;1.20;;;;;;;12.33;59.07;101422.41;10381022;28;20036;-61
2024/02/13 14:16:54;;;;;;;1.77;0.75;;;;;;;12.33;59.60;101426.91;10368043;28;20084;-60
2024/02/13 14:21:58;;;;;;;1.60;0.90;;;;;;;12.32;58.99;101431.44;10366588;28;20022;-61
2024/02/13 14:26:59;;;;;;;1.58;0.60;;;;;;;12.32;58.93;101419.97;10366544;28;20038;-61
2024/02/13 14:32:00;;;;;;;1.98;0.70;;;;;;;12.32;59.57;101422.63;10368706;28;20056;-60
2024/02/13 14:37:01;;;;;;;1.27;0.90;;;;;;;12.32;59.33;101425.31;10367600;28;20041;-61
2024/02/13 14:42:02;;;;;;;3.33;0.70;;;;;;;12.33;59.03;101422.41;10380537;28;20025;-61
2024/02/13 14:47:04;;;;;;;1.85;0.90;;;;;;;12.31;59.31;101408.50;10399334;28;20727;-62
2024/02/13 14:52:05;;;;;;;1.30;0.60;;;;;;;12.30;59.29;101407.69;10407902;28;20032;-62
2024/02/13 14:57:06;;;;;;;1.35;0.90;;;;;;;12.30;58.49;101402.38;10407946;28;20032;-61
2024/02/13 15:02:11;;;;;;;1.95;0.85;;;;;;;12.32;59.29;101419.97;10406650;28;20168;-61
2024/02/13 15:07:12;;;;;;;0.90;0.50;;;;;;;12.30;58.85;101412.22;10408417;28;20128;-61
2024/02/13 15:12:13;;;;;;;1.73;0.70;;;;;;;12.30;58.46;101412.22;10387964;28;20075;-61
2024/02/13 15:17:14;;;;;;;3.13;0.60;;;;;;;12.29;58.90;101421.25;10374766;28;20091;-61
2024/02/13 15:22:18;;;;;;;0.95;0.50;;;;;;;12.29;59.21;101410.59;10374762;28;20284;-59
2024/02/13 15:27:18;;;;;;;1.13;0.52;;;;;;;12.28;58.43;101417.78;10374527;28;20133;-60
2024/02/13 15:32:18;;;;;;;1.03;0.57;;;;;;;12.29;58.67;101415.91;10374708;28;20048;-61
2024/02/13 15:47:57;;;;;;;3.03;1.27;;;;;;;12.27;58.95;101402.06;10400407;28;20116;-60
2024/02/13 15:52:58;;;;;;;1.77;0.50;;;;;;;12.28;58.36;101406.34;10414496;28;20025;-61
2024/02/13 15:57:58;;;;;;;1.48;0.70;;;;;;;12.27;58.60;101404.72;10413825;28;20029;-61
2024/02/13 16:03:00;;;;;;;0.90;0.50;;;;;;;12.26;58.56;101406.56;10414327;28;20112;-61
2024/02/13 16:08:00;;;;;;;1.60;0.70;;;;;;;12.26;59.27;101405.75;10413762;28;20296;-61
2024/02/13 16:13:02;;;;;;;1.50;0.70;;;;;;;12.25;58.09;101389.00;10379052;28;20038;-61
2024/02/13 16:18:02;;;;;;;0.93;0.60;;;;;;;12.26;58.79;101403.91;10371075;28;20030;-61
2024/02/13 16:23:03;;;;;;;1.75;0.70;;;;;;;12.25;58.68;101393.50;10371590;28;20103;-60
2024/02/13 16:28:05;;;;;;;1.38;0.52;;;;;;;12.24;57.97;101402.53;10371618;28;20026;-61
2024/02/13 16:33:07;;;;;;;2.40;0.70;;;;;;;12.22;58.17;101394.00;10373034;28;20510;-61
2024/02/13 16:38:07;;;;;;;1.48;0.60;;;;;;;12.24;58.22;101391.91;10370303;28;20026;-61
2024/02/13 16:43:08;;;;;;;1.43;0.73;;;;;;;12.22;57.94;101400.13;10372771;28;20496;-61
2024/02/13 16:48:09;;;;;;;0.97;0.60;;;;;;;12.23;58.50;101400.94;10412074;28;20287;-61
2024/02/13 16:53:09;;;;;;;1.17;0.55;;;;;;;12.22;58.95;101404.63;10410747;28;20819;-60
2024/02/13 16:58:09;;;;;;;2.83;1.73;;;;;;;12.22;59.29;101423.25;10410859;28;20036;-61
2024/02/13 17:03:12;;;;;;;1.45;0.50;;;;;;;12.21;58.60;101414.47;10410578;28;20021;-61
2024/02/13 17:08:13;;;;;;;1.45;0.60;;;;;;;12.21;58.15;101408.34;10380529;28;20050;-61
2024/02/13 17:13:13;;;;;;;1.30;0.57;;;;;;;12.21;57.90;101419.78;10374678;28;20029;-61
2024/02/13 17:18:14;;;;;;;0.82;0.60;;;;;;;12.20;58.26;101422.69;10370978;28;20276;-61
2024/02/13 17:23:14;;;;;;;1.00;0.50;;;;;;;12.22;58.86;101415.25;10368130;28;20029;-61
2024/02/13 17:28:16;;;;;;;0.98;0.65;;;;;;;12.21;58.78;101406.47;10367473;28;20064;-61
2024/02/13 17:33:17;;;;;;;1.65;0.50;;;;;;;12.21;58.69;101419.78;10367485;28;20034;-61
2024/02/13 17:38:18;;;;;;;1.05;0.65;;;;;;;12.20;58.43;101404.88;10378719;28;20029;-61
2024/02/13 17:43:18;;;;;;;1.52;0.60;;;;;;;12.19;58.01;101419.19;10396823;28;20476;-61
2024/02/13 17:48:20;;;;;;;1.25;0.57;;;;;;;12.20;57.79;101422.69;10406692;28;20110;-61
2024/02/13 17:53:20;;;;;;;0.95;0.57;;;;;;;12.20;58.76;101428.00;10408012;28;20040;-60
2024/02/13 17:58:21;;;;;;;2.58;1.60;;;;;;;12.19;58.01;101434.31;10407172;28;20495;-61
2024/02/13 18:03:21;;;;;;;1.35;0.60;;;;;;;12.18;58.92;101433.50;10407417;28;20032;-60
2024/02/13 18:08:23;;;;;;;2.70;0.70;;;;;;;12.18;58.10;101422.88;10407436;28;20512;-61
2024/02/13 18:13:23;;;;;;;0.85;0.63;;;;;;;12.17;58.55;101417.81;10392345;28;20798;-61
2024/02/13 18:18:23;;;;;;;1.52;0.63;;;;;;;12.16;58.55;101406.38;10405085;28;20032;-61
2024/02/13 18:23:24;;;;;;;0.57;0.50;;;;;;;12.16;58.68;101409.03;10406791;28;20024;-62
2024/02/13 18:28:24;;;;;;;1.85;1.13;;;;;;;12.17;57.93;101400.00;10406425;28;20385;-61
2024/02/13 18:33:25;;;;;;;1.40;0.98;;;;;;;12.16;58.32;101394.91;10405646;28;20061;-61
2024/02/13 18:38:25;;;;;;;1.65;0.60;;;;;;;12.15;58.53;101391.47;10392792;28;20040;-61
2024/02/13 18:43:27;;;;;;;1.83;0.57;;;;;;;12.16;58.82;101382.44;10405574;28;20017;-61
2024/02/13 18:48:31;;;;;;;1.02;0.50;;;;;;;12.19;58.60;101389.94;10405637;28;20056;-61
2024/02/13 18:53:31;;;;;;;1.77;0.73;;;;;;;12.18;58.98;101396.28;10353635;28;20050;-61
2024/02/13 18:58:35;;;;;;;1.37;0.70;;;;;;;12.16;58.21;101378.97;10374278;28;20147;-61
2024/02/13 19:03:36;;;;;;;1.70;0.60;;;;;;;12.14;58.99;101373.91;10392324;28;20310;-61
2024/02/13 19:08:36;;;;;;;1.13;0.60;;;;;;;12.14;58.88;101365.91;10404096;28;20049;-61
2024/02/13 19:13:37;;;;;;;1.23;1.10;;;;;;;12.15;59.30;101348.13;10405075;28;20030;-60
2024/02/13 19:18:38;;;;;;;1.42;0.80;;;;;;;12.15;58.07;101353.44;10404837;28;20028;-61
2024/02/13 19:23:39;;;;;;;1.45;0.60;;;;;;;12.14;58.93;101357.94;10359682;28;20359;-61
2024/02/13 19:28:39;;;;;;;0.82;0.52;;;;;;;12.13;58.19;101351.03;10364612;28;20029;-61
2024/02/13 19:33:39;;;;;;;2.00;0.90;;;;;;;12.14;58.24;101357.94;10364911;28;20378;-61
2024/02/13 19:38:40;;;;;;;0.80;0.47;;;;;;;12.13;58.03;101344.91;10364272;28;20281;-61
2024/02/13 19:43:41;;;;;;;1.67;0.50;;;;;;;12.14;57.71;101349.16;10364076;28;20028;-61
2024/02/13 19:48:41;;;;;;;1.17;0.70;;;;;;;12.13;58.09;101337.72;10363931;28;20053;-61
2024/02/13 19:53:42;;;;;;;0.95;0.50;;;;;;;12.12;59.00;101324.69;10366592;28;20033;-61
2024/02/13 19:58:42;;;;;;;1.42;0.90;;;;;;;12.12;57.87;101317.50;10369549;28;20037;-61
2024/02/13 20:03:43;;;;;;;1.33;0.70;;;;;;;12.11;57.69;101310.59;10395542;28;20028;-61
2024/02/13 20:08:43;;;;;;;0.88;0.60;;;;;;;12.12;58.02;101303.41;10397223;28;20299;-61
2024/02/13 20:13:43;;;;;;;0.63;0.40;;;;;;;12.13;58.32;101305.81;10370867;28;20053;-61
2024/02/13 20:18:44;;;;;;;1.60;0.67;;;;;;;12.12;57.67;101290.13;10369191;28;20465;-61
2024/02/13 20:23:45;;;;;;;1.90;0.93;;;;;;;12.12;58.71;101290.94;10370201;28;20283;-61
2024/02/13 20:28:46;;;;;;;0.85;0.50;;;;;;;12.11;57.95;101299.13;10368872;28;20105;-60
2024/02/13 20:33:48;;;;;;;1.67;0.77;;;;;;;12.11;57.89;101289.31;10370210;28;20473;-60
2024/02/13 20:38:48;;;;;;;1.15;0.75;;;;;;;12.12;58.01;101287.47;10370053;28;20748;-61
2024/02/13 20:43:48;;;;;;;1.05;0.60;;;;;;;12.10;58.99;101277.06;10369244;28;20025;-61
2024/02/13 20:48:49;;;;;;;1.20;0.60;;;;;;;12.11;58.49;101264.59;10368056;28;20495;-61
2024/02/13 20:53:50;;;;;;;1.80;1.17;;;;;;;12.10;58.08;101269.09;10367846;28;20299;-61
2024/02/13 20:58:51;;;;;;;1.52;0.95;;;;;;;12.11;58.00;101264.59;10392659;28;20025;-60
2024/02/13 21:03:51;;;;;;;1.77;1.17;;;;;;;12.10;58.29;101260.31;10408494;28;20477;-60
2024/02/13 21:08:51;;;;;;;1.60;0.87;;;;;;;12.09;58.33;101256.84;10409732;28;20057;-60
2024/02/13 21:13:54;;;;;;;2.47;0.90;;;;;;;12.09;57.93;101250.72;10408958;28;20628;-60
2024/02/13 21:18:54;;;;;;;1.92;0.90;;;;;;;12.09;58.08;101248.88;10409420;28;20284;-60
2024/02/13 21:23:55;;;;;;;1.52;1.10;;;;;;;12.09;57.81;101243.56;10408793;28;20473;-60
2024/02/13 21:28:56;;;;;;;1.57;0.90;;;;;;;12.08;57.96;101231.31;10407379;28;20026;-60
2024/02/13 21:33:57;;;;;;;1.88;0.80;;;;;;;12.09;58.52;101230.28;10375366;28;20277;-60
2024/02/13 21:38:57;;;;;;;1.27;1.07;;;;;;;12.11;58.87;101233.50;10367239;28;20405;-61
2024/02/13 21:43:57;;;;;;;1.33;0.73;;;;;;;12.09;57.75;101230.28;10367014;28;20269;-60
2024/02/13 21:48:58;;;;;;;1.47;0.77;;;;;;;12.09;58.47;101226.81;10361221;28;20037;-60
2024/02/13 21:54:00;;;;;;;0.73;0.57;;;;;;;12.09;58.77;101226.81;10366471;28;20288;-61
2024/02/13 21:59:00;;;;;;;1.10;0.70;;;;;;;12.09;57.55;101224.97;10365387;28;20049;-61
2024/02/13 22:04:00;;;;;;;2.43;1.40;;;;;;;12.07;57.64;101221.72;10366104;28;20101;-60
2024/02/13 22:09:01;;;;;;;1.73;1.00;;;;;;;12.07;57.42;101216.41;10381196;28;20375;-60
2024/02/13 22:14:01;;;;;;;2.45;1.15;;;;;;;12.07;57.83;101216.41;10406828;28;20292;-61
2024/02/13 22:19:02;;;;;;;1.90;0.90;;;;;;;12.08;58.28;101206.59;10405772;28;20029;-61
2024/02/13 22:24:06;;;;;;;2.30;1.00;;;;;;;12.07;57.81;101220.91;10405212;28;20282;-61
2024/02/13 22:29:07;;;;;;;2.53;1.25;;;;;;;12.06;58.77;101209.47;10405347;28;20381;-61
2024/02/13 22:34:07;;;;;;;1.58;0.90;;;;;;;12.05;57.80;101202.53;10396188;28;20037;-60
2024/02/13 22:39:08;;;;;;;2.87;0.90;;;;;;;12.06;57.62;101198.84;10365727;28;20033;-60
2024/02/13 22:44:08;;;;;;;1.45;0.98;;;;;;;12.05;57.71;101191.91;10365032;28;20285;-61
2024/02/13 22:49:08;;;;;;;2.57;1.30;;;;;;;12.06;58.62;101182.09;10365372;28;20037;-60
2024/02/13 22:54:09;;;;;;;2.73;1.57;;;;;;;12.04;57.84;101182.31;10363193;28;20303;-60
2024/02/13 22:59:09;;;;;;;1.77;0.90;;;;;;;12.07;58.93;101186.34;10363926;28;20284;-60
2024/02/13 23:04:09;;;;;;;1.33;0.80;;;;;;;12.06;58.74;101174.91;10364861;28;20285;-60
2024/02/13 23:09:16;;;;;;;2.03;0.90;;;;;;;12.08;58.77;101177.34;10390034;28;20787;-60
2024/02/13 23:14:17;;;;;;;1.95;1.00;;;;;;;12.07;57.50;101178.38;10364230;28;20330;-61